THY786 FAOR-FQMA
Flight info
| Callsign | THY786 |
|---|---|
| Flight time | 0h 36m |
| Altitude | 33000 |
| Route | EXOBI1A EXOBI DCT ORNAD ORNAD1B |
| Aircraft | A319/M-SDE3FGHIRWY/LB1 |
Departure
| Time | 2026-04-30 14:37 |
|---|---|
| Airport | O.R. Tambo International Airport (FAOR) |
Arrival
| Time | 2026-04-30 15:14 |
|---|---|
| Airport | Maputo Airport (FQMA) |
| Time | Latitude | Longitude | Altitude | Speed | Heading |
|---|---|---|---|---|---|
| 2026-04-30 14:23 | -26.13730 | 28.23187 | 5564 ft | 0 kts | 6° |
| 2026-04-30 14:26 | -26.13731 | 28.23187 | 5564 ft | 0 kts | 6° |
| 2026-04-30 14:30 | -26.13769 | 28.23182 | 5563 ft | 3 kts | 11° |
| 2026-04-30 14:31 | -26.13792 | 28.23155 | 5565 ft | 2 kts | 103° |
| 2026-04-30 14:33 | -26.13792 | 28.23156 | 5564 ft | 0 kts | 103° |
| 2026-04-30 14:33 | -26.13794 | 28.23182 | 5563 ft | 6 kts | 94° |
| 2026-04-30 14:34 | -26.13797 | 28.23233 | 5564 ft | 5 kts | 94° |
| 2026-04-30 14:34 | -26.13799 | 28.23260 | 5564 ft | 4 kts | 94° |
| 2026-04-30 14:34 | -26.13802 | 28.23300 | 5564 ft | 4 kts | 97° |
| 2026-04-30 14:34 | -26.13829 | 28.23325 | 5564 ft | 7 kts | 154° |
| 2026-04-30 14:35 | -26.13884 | 28.23456 | 5562 ft | 12 kts | 106° |
| 2026-04-30 14:35 | -26.13907 | 28.23542 | 5562 ft | 13 kts | 106° |
| 2026-04-30 14:35 | -26.13919 | 28.23635 | 5562 ft | 13 kts | 73° |
| 2026-04-30 14:36 | -26.13842 | 28.23685 | 5561 ft | 15 kts | 15° |
| 2026-04-30 14:36 | -26.13725 | 28.23719 | 5560 ft | 26 kts | 14° |
| 2026-04-30 14:36 | -26.13343 | 28.23836 | 5551 ft | 90 kts | 15° |
| 2026-04-30 14:36 | -26.12545 | 28.24081 | 5556 ft | 144 kts | 15° |
| 2026-04-30 14:37 | -26.11454 | 28.24426 | 5644 ft | 175 kts | 14° |
| 2026-04-30 14:37 | -26.10242 | 28.24782 | 6309 ft | 187 kts | 10° |
| 2026-04-30 14:37 | -26.08933 | 28.25079 | 6869 ft | 199 kts | 8° |
| 2026-04-30 14:37 | -26.07506 | 28.25492 | 7217 ft | 224 kts | 13° |
| 2026-04-30 14:38 | -26.05953 | 28.26100 | 7624 ft | 251 kts | 24° |
| 2026-04-30 14:38 | -26.04473 | 28.27290 | 8194 ft | 273 kts | 41° |
| 2026-04-30 14:38 | -26.03305 | 28.29012 | 9008 ft | 286 kts | 57° |
| 2026-04-30 14:38 | -26.02626 | 28.31131 | 9850 ft | 298 kts | 76° |
| 2026-04-30 14:39 | -26.02571 | 28.33484 | 10516 ft | 315 kts | 91° |
| 2026-04-30 14:39 | -26.02757 | 28.35974 | 10796 ft | 340 kts | 92° |
| 2026-04-30 14:39 | -26.02989 | 28.38676 | 11018 ft | 363 kts | 93° |
| 2026-04-30 14:40 | -26.03527 | 28.44589 | 11485 ft | 400 kts | 93° |
| 2026-04-30 14:40 | -26.03801 | 28.47694 | 12043 ft | 406 kts | 93° |
| 2026-04-30 14:40 | -26.04145 | 28.50835 | 12641 ft | 412 kts | 98° |
| 2026-04-30 14:40 | -26.04748 | 28.53964 | 13258 ft | 417 kts | 103° |
| 2026-04-30 14:41 | -26.05555 | 28.57132 | 13873 ft | 422 kts | 106° |
| 2026-04-30 14:41 | -26.06453 | 28.60260 | 14436 ft | 427 kts | 107° |
| 2026-04-30 14:41 | -26.07379 | 28.63419 | 14975 ft | 431 kts | 107° |
| 2026-04-30 14:41 | -26.08275 | 28.66569 | 15496 ft | 436 kts | 107° |
| 2026-04-30 14:42 | -26.09154 | 28.69814 | 16022 ft | 440 kts | 105° |
| 2026-04-30 14:42 | -26.09858 | 28.73139 | 16540 ft | 443 kts | 97° |
| 2026-04-30 14:42 | -26.10035 | 28.76567 | 17050 ft | 445 kts | 86° |
| 2026-04-30 14:42 | -26.09713 | 28.79995 | 17538 ft | 447 kts | 78° |
| 2026-04-30 14:43 | -26.09210 | 28.83424 | 18016 ft | 451 kts | 78° |
| 2026-04-30 14:43 | -26.08720 | 28.86879 | 18474 ft | 454 kts | 79° |
| 2026-04-30 14:43 | -26.08234 | 28.90367 | 18867 ft | 458 kts | 79° |
| 2026-04-30 14:43 | -26.07746 | 28.93877 | 19243 ft | 461 kts | 78° |
| 2026-04-30 14:44 | -26.07250 | 28.97410 | 19618 ft | 464 kts | 78° |
| 2026-04-30 14:44 | -26.06750 | 29.00965 | 19990 ft | 467 kts | 78° |
| 2026-04-30 14:44 | -26.06244 | 29.04544 | 20354 ft | 469 kts | 78° |
| 2026-04-30 14:44 | -26.05733 | 29.08140 | 20696 ft | 472 kts | 78° |
| 2026-04-30 14:45 | -26.05217 | 29.11752 | 21040 ft | 475 kts | 78° |
| 2026-04-30 14:45 | -26.04769 | 29.15401 | 21358 ft | 479 kts | 83° |
| 2026-04-30 14:45 | -26.04618 | 29.19119 | 21689 ft | 482 kts | 85° |
| 2026-04-30 14:45 | -26.04483 | 29.22857 | 21999 ft | 485 kts | 85° |
| 2026-04-30 14:46 | -26.04347 | 29.26610 | 22299 ft | 487 kts | 85° |
| 2026-04-30 14:46 | -26.04207 | 29.30387 | 22595 ft | 489 kts | 85° |
| 2026-04-30 14:46 | -26.04062 | 29.34177 | 22881 ft | 492 kts | 85° |
| 2026-04-30 14:46 | -26.03911 | 29.37980 | 23157 ft | 494 kts | 85° |
| 2026-04-30 14:47 | -26.03759 | 29.41801 | 23427 ft | 496 kts | 85° |
| 2026-04-30 14:47 | -26.03608 | 29.45646 | 23696 ft | 498 kts | 84° |
| 2026-04-30 14:47 | -26.03457 | 29.49501 | 23919 ft | 500 kts | 85° |
| 2026-04-30 14:47 | -26.03308 | 29.53377 | 24118 ft | 502 kts | 84° |
| 2026-04-30 14:48 | -26.03157 | 29.57263 | 24320 ft | 504 kts | 84° |
| 2026-04-30 14:48 | -26.03004 | 29.61118 | 24513 ft | 506 kts | 84° |
| 2026-04-30 14:48 | -26.02844 | 29.65082 | 24712 ft | 508 kts | 84° |
| 2026-04-30 14:48 | -26.02687 | 29.68958 | 24900 ft | 509 kts | 84° |
| 2026-04-30 14:49 | -26.02525 | 29.72900 | 25094 ft | 511 kts | 84° |
| 2026-04-30 14:49 | -26.02362 | 29.76855 | 25289 ft | 513 kts | 84° |
| 2026-04-30 14:49 | -26.02199 | 29.80826 | 25476 ft | 515 kts | 84° |
| 2026-04-30 14:49 | -26.02033 | 29.84810 | 25668 ft | 517 kts | 84° |
| 2026-04-30 14:50 | -26.01700 | 29.92824 | 26037 ft | 521 kts | 84° |
| 2026-04-30 14:50 | -26.01532 | 29.96850 | 26220 ft | 523 kts | 84° |
| 2026-04-30 14:51 | -26.01187 | 30.04953 | 26575 ft | 526 kts | 84° |
| 2026-04-30 14:51 | -26.01009 | 30.09018 | 26756 ft | 528 kts | 84° |
| 2026-04-30 14:51 | -26.00649 | 30.17192 | 27124 ft | 531 kts | 84° |
| 2026-04-30 14:52 | -26.00469 | 30.21294 | 27326 ft | 532 kts | 84° |
| 2026-04-30 14:52 | -26.00110 | 30.29506 | 27849 ft | 531 kts | 84° |
| 2026-04-30 14:52 | -25.99928 | 30.33602 | 28105 ft | 531 kts | 84° |
| 2026-04-30 14:53 | -25.99560 | 30.41795 | 28661 ft | 530 kts | 84° |
| 2026-04-30 14:53 | -25.99376 | 30.45890 | 28935 ft | 530 kts | 84° |
| 2026-04-30 14:54 | -25.98992 | 30.54076 | 29540 ft | 530 kts | 84° |
| 2026-04-30 14:54 | -25.98602 | 30.62241 | 30161 ft | 529 kts | 84° |
| 2026-04-30 14:55 | -25.98212 | 30.70406 | 30706 ft | 529 kts | 84° |
| 2026-04-30 14:55 | -25.98020 | 30.74485 | 30986 ft | 528 kts | 84° |
| 2026-04-30 14:55 | -25.97631 | 30.82641 | 31524 ft | 529 kts | 84° |
| 2026-04-30 14:56 | -25.97232 | 30.90799 | 32090 ft | 529 kts | 84° |
| 2026-04-30 14:56 | -25.96832 | 30.98914 | 32653 ft | 529 kts | 84° |
| 2026-04-30 14:57 | -25.96634 | 31.02999 | 32933 ft | 530 kts | 84° |
| 2026-04-30 14:57 | -25.96231 | 31.11187 | 33162 ft | 528 kts | 84° |
| 2026-04-30 14:58 | -25.95813 | 31.19325 | 33154 ft | 527 kts | 84° |
| 2026-04-30 14:58 | -25.95180 | 31.31526 | 33138 ft | 527 kts | 84° |
| 2026-04-30 15:00 | -25.94116 | 31.51833 | 33109 ft | 526 kts | 84° |
| 2026-04-30 15:00 | -25.93684 | 31.59956 | 32457 ft | 526 kts | 84° |
| 2026-04-30 15:01 | -25.93233 | 31.68209 | 30438 ft | 535 kts | 84° |
| 2026-04-30 15:01 | -25.93086 | 31.70941 | 29823 ft | 535 kts | 84° |
| 2026-04-30 15:01 | -25.92564 | 31.80584 | 27227 ft | 535 kts | 84° |
| 2026-04-30 15:02 | -25.92340 | 31.84657 | 26062 ft | 536 kts | 83° |
| 2026-04-30 15:02 | -25.92108 | 31.88793 | 24864 ft | 537 kts | 83° |
| 2026-04-30 15:03 | -25.90194 | 32.00722 | 21991 ft | 506 kts | 64° |
| 2026-04-30 15:03 | -25.87576 | 32.07849 | 20136 ft | 491 kts | 63° |
| 2026-04-30 15:04 | -25.85030 | 32.14751 | 18443 ft | 476 kts | 63° |
| 2026-04-30 15:04 | -25.81351 | 32.24705 | 15674 ft | 452 kts | 64° |
| 2026-04-30 15:05 | -25.77840 | 32.34176 | 13144 ft | 429 kts | 64° |
| 2026-04-30 15:06 | -25.75629 | 32.40152 | 11725 ft | 412 kts | 64° |
| 2026-04-30 15:06 | -25.73477 | 32.45931 | 10255 ft | 399 kts | 64° |
| 2026-04-30 15:07 | -25.71396 | 32.51514 | 8199 ft | 380 kts | 64° |
| 2026-04-30 15:07 | -25.69440 | 32.56785 | 6331 ft | 360 kts | 64° |
| 2026-04-30 15:08 | -25.67911 | 32.61910 | 4539 ft | 348 kts | 86° |
| 2026-04-30 15:08 | -25.71783 | 32.67440 | 3716 ft | 297 kts | 164° |
| 2026-04-30 15:09 | -25.75014 | 32.67488 | 3274 ft | 269 kts | 199° |
| 2026-04-30 15:09 | -25.78138 | 32.65774 | 2649 ft | 236 kts | 213° |
| 2026-04-30 15:10 | -25.81248 | 32.63878 | 2000 ft | 202 kts | 213° |
| 2026-04-30 15:11 | -25.85017 | 32.61578 | 1180 ft | 148 kts | 213° |
| 2026-04-30 15:11 | -25.86799 | 32.60488 | 817 ft | 143 kts | 213° |
| 2026-04-30 15:12 | -25.89401 | 32.58898 | 246 ft | 142 kts | 211° |
| 2026-04-30 15:13 | -25.90698 | 32.58088 | 138 ft | 59 kts | 209° |
| 2026-04-30 15:14 | -25.92006 | 32.57299 | 133 ft | 18 kts | 208° |
| 2026-04-30 15:14 | -25.92169 | 32.57451 | 133 ft | 16 kts | 175° |
| 2026-04-30 15:16 | -25.92571 | 32.56363 | 133 ft | 0 kts | 251° |
| 2026-04-30 15:17 | -25.92571 | 32.56364 | 133 ft | 0 kts | 251° |